Saline City, Missouri
Current Conditions -  °F | °C
As of 9:55 PM on Sunday 23 Nov 2014 (Local Time) from KMHL Reporting Station
Overcast Overcast  
Wind Chill:   Ceiling: 1400
Heat Index:   Visibility: 7mi
Dew Point:   Wind: 18mph
Humidity: 93%   Direction: 310°NW
Pressure: 29.36"   Gusts: 30mph
Location:  39.2023°N, 93.0277°W
Report Text: KMHL 240355Z AUTO 31016G26KT 7SM SCT008 OVC014 08/07 A2936 RMK AO2 P0005
Loading
Personal Weather Stations






























Interactive Weather Map New forecast layout! Learn more

10-Day Weather Forecast

Advertisements
Track Severe Weather on mobile